Time;durP1;ratioP1;P1;durP2;ratioP2;P2;SDS_P1;SDS_P2;PMS_P1;PMS_P2;Temp;Humidity;BMP_temperature;BMP_pressure;BME280_temperature;BME280_humidity;BME280_pressure;Samples;Min_cycle;Max_cycle;Signal;HPM_P1;HPM_P2
2023/11/28 00:00:00;;;;;;;5.90;1.55;;;;;;;;;;5026318;28;20052;-68
2023/11/28 00:02:26;;;;;;;2.90;1.25;;;;;;;;;;5025116;28;20037;-67
2023/11/28 00:04:52;;;;;;;3.97;1.17;;;;;;;;;;5025865;28;20045;-67
2023/11/28 00:07:19;;;;;;;8.52;1.58;;;;;;;;;;5042454;28;20480;-67
2023/11/28 00:09:45;;;;;;;4.78;0.90;;;;;;;;;;5046517;28;20064;-67
2023/11/28 00:12:11;;;;;;;6.75;1.10;;;;;;;;;;5047403;28;20560;-67
2023/11/28 00:14:37;;;;;;;2.60;1.02;;;;;;;;;;5028221;28;20044;-67
2023/11/28 00:17:03;;;;;;;6.25;0.90;;;;;;;;;;5023537;28;20199;-68
2023/11/28 00:19:30;;;;;;;5.80;1.20;;;;;;;;;;5025937;28;20041;-67
2023/11/28 00:21:56;;;;;;;5.95;1.27;;;;;;;;;;5027002;28;20200;-67
2023/11/28 00:24:22;;;;;;;5.10;1.25;;;;;;;;;;5028988;28;20076;-67
2023/11/28 00:26:48;;;;;;;4.20;1.20;;;;;;;;;;5024844;28;20156;-67
2023/11/28 00:29:14;;;;;;;7.82;1.40;;;;;;;;;;5027014;28;20045;-67
2023/11/28 00:31:42;;;;;;;4.88;1.15;;;;;;;;;;5028189;28;20060;-67
2023/11/28 00:34:08;;;;;;;5.90;0.93;;;;;;;;;;5025693;28;20056;-67
2023/11/28 00:36:34;;;;;;;2.60;1.10;;;;;;;;;;5030411;28;20061;-67
2023/11/28 00:39:01;;;;;;;3.92;1.17;;;;;;;;;;5030105;28;20128;-66
2023/11/28 00:41:27;;;;;;;3.38;1.35;;;;;;;;;;5024988;28;20052;-67
2023/11/28 00:43:55;;;;;;;6.25;1.17;;;;;;;;;;5009435;28;20080;-67
2023/11/28 00:46:22;;;;;;;3.08;0.90;;;;;;;;;;5024980;28;20493;-67
2023/11/28 00:48:48;;;;;;;4.55;1.08;;;;;;;;;;5026017;28;20362;-67
2023/11/28 00:51:14;;;;;;;2.35;0.88;;;;;;;;;;5024321;28;20180;-67
2023/11/28 00:53:41;;;;;;;7.35;1.00;;;;;;;;;;5026300;28;20041;-67
2023/11/28 00:56:08;;;;;;;5.45;1.08;;;;;;;;;;5025241;28;20591;-67
2023/11/28 00:58:35;;;;;;;4.03;1.00;;;;;;;;;;5024646;28;20053;-68
2023/11/28 01:01:01;;;;;;;2.75;0.77;;;;;;;;;;5025099;28;20428;-67
2023/11/28 01:03:27;;;;;;;3.45;0.90;;;;;;;;;;5023241;28;20503;-67
2023/11/28 01:05:54;;;;;;;5.32;1.05;;;;;;;;;;5024427;28;20045;-67
2023/11/28 01:08:20;;;;;;;4.82;1.20;;;;;;;;;;5024058;28;20050;-67
2023/11/28 01:10:46;;;;;;;4.32;1.20;;;;;;;;;;5022854;28;20077;-67
2023/11/28 01:13:12;;;;;;;4.32;1.20;;;;;;;;;;5025099;28;20041;-67
2023/11/28 01:15:38;;;;;;;3.60;0.95;;;;;;;;;;5030579;28;20491;-67
2023/11/28 01:18:05;;;;;;;3.45;0.90;;;;;;;;;;5042146;28;20049;-67
2023/11/28 01:20:31;;;;;;;4.25;1.08;;;;;;;;;;5024756;28;20072;-68
2023/11/28 01:22:57;;;;;;;4.80;1.30;;;;;;;;;;5025099;28;20142;-68
2023/11/28 01:25:23;;;;;;;4.80;1.20;;;;;;;;;;5025986;28;20053;-67
2023/11/28 01:27:50;;;;;;;7.15;1.10;;;;;;;;;;5026968;28;20052;-67
2023/11/28 01:30:17;;;;;;;2.88;1.10;;;;;;;;;;5043133;28;20391;-67
2023/11/28 01:32:44;;;;;;;3.88;1.17;;;;;;;;;;5024785;28;20049;-67
2023/11/28 01:35:10;;;;;;;3.28;0.90;;;;;;;;;;5027909;28;20048;-68
2023/11/28 01:37:37;;;;;;;3.97;1.20;;;;;;;;;;5027217;28;20476;-67
2023/11/28 01:40:03;;;;;;;3.03;0.98;;;;;;;;;;5010292;28;20099;-67
2023/11/28 01:42:29;;;;;;;3.97;1.00;;;;;;;;;;5027882;28;20041;-67
2023/11/28 01:44:55;;;;;;;4.38;1.08;;;;;;;;;;5021958;28;20057;-67
2023/11/28 01:47:22;;;;;;;8.23;1.15;;;;;;;;;;5026633;28;20107;-67
2023/11/28 01:49:48;;;;;;;5.70;0.82;;;;;;;;;;5027588;28;20056;-67
2023/11/28 01:52:14;;;;;;;3.97;0.80;;;;;;;;;;5024086;28;20060;-68
2023/11/28 01:54:42;;;;;;;2.90;0.90;;;;;;;;;;5043872;28;20060;-67
2023/11/28 01:57:08;;;;;;;4.95;1.40;;;;;;;;;;5043623;28;20048;-67
2023/11/28 01:59:35;;;;;;;3.83;1.13;;;;;;;;;;5026565;28;20033;-67
2023/11/28 02:02:01;;;;;;;2.33;0.73;;;;;;;;;;5024674;28;20120;-68
2023/11/28 02:04:27;;;;;;;3.15;0.80;;;;;;;;;;5027307;28;20087;-68
2023/11/28 02:06:53;;;;;;;2.88;1.00;;;;;;;;;;5043704;28;20037;-67
2023/11/28 02:09:20;;;;;;;4.07;0.80;;;;;;;;;;5027485;28;20465;-67
2023/11/28 02:11:46;;;;;;;2.97;1.10;;;;;;;;;;5020035;28;20134;-67
2023/11/28 02:14:12;;;;;;;4.07;0.80;;;;;;;;;;5047522;28;20606;-68
2023/11/28 02:16:38;;;;;;;2.20;0.70;;;;;;;;;;5031307;28;20445;-67
2023/11/28 02:19:04;;;;;;;3.10;0.80;;;;;;;;;;5027953;28;20049;-68
2023/11/28 02:21:31;;;;;;;3.05;0.77;;;;;;;;;;5028931;28;20056;-67
2023/11/28 02:23:58;;;;;;;2.28;0.73;;;;;;;;;;5030216;28;20577;-67
2023/11/28 02:26:25;;;;;;;4.30;1.00;;;;;;;;;;5030678;28;20384;-68
2023/11/28 02:28:51;;;;;;;4.88;0.85;;;;;;;;;;5049203;28;20445;-68
2023/11/28 02:31:18;;;;;;;3.78;1.15;;;;;;;;;;5029910;28;20072;-68
2023/11/28 02:33:44;;;;;;;6.93;1.10;;;;;;;;;;5012379;28;20049;-67
2023/11/28 02:36:11;;;;;;;6.10;0.95;;;;;;;;;;5030745;28;20536;-67
2023/11/28 02:38:37;;;;;;;1.65;0.60;;;;;;;;;;5048676;28;20045;-67
2023/11/28 02:41:03;;;;;;;5.68;1.00;;;;;;;;;;5008520;28;20099;-68
2023/11/28 02:43:30;;;;;;;1.75;0.65;;;;;;;;;;5023889;28;20049;-67
2023/11/28 02:45:56;;;;;;;2.17;0.80;;;;;;;;;;5043168;28;20052;-67
2023/11/28 02:48:23;;;;;;;2.08;0.73;;;;;;;;;;5026035;28;20045;-67
2023/11/28 02:50:49;;;;;;;3.50;0.95;;;;;;;;;;5026283;28;20488;-67
2023/11/28 02:53:17;;;;;;;4.45;1.02;;;;;;;;;;5023522;28;20068;-67
2023/11/28 02:55:44;;;;;;;2.70;0.82;;;;;;;;;;5025501;28;20084;-67
2023/11/28 02:58:10;;;;;;;4.25;1.05;;;;;;;;;;5026050;28;20103;-67
2023/11/28 03:00:36;;;;;;;4.03;1.00;;;;;;;;;;5042757;28;20135;-68
2023/11/28 03:03:02;;;;;;;6.80;1.35;;;;;;;;;;5023772;28;20128;-68
2023/11/28 03:05:31;;;;;;;6.93;1.10;;;;;;;;;;5025363;28;20079;-67
2023/11/28 03:07:57;;;;;;;5.63;1.10;;;;;;;;;;5027038;28;20626;-67
2023/11/28 03:10:23;;;;;;;5.10;1.40;;;;;;;;;;5024755;28;20053;-67
2023/11/28 03:12:49;;;;;;;4.55;1.00;;;;;;;;;;5023916;28;20116;-67
2023/11/28 03:15:16;;;;;;;7.68;1.15;;;;;;;;;;5021327;28;20069;-67
2023/11/28 03:17:42;;;;;;;4.90;1.00;;;;;;;;;;5021505;28;20084;-67
2023/11/28 03:20:09;;;;;;;3.80;1.00;;;;;;;;;;5019850;28;20052;-67
2023/11/28 03:22:35;;;;;;;3.60;1.00;;;;;;;;;;5019745;28;20033;-67
2023/11/28 03:25:08;;;;;;;5.60;0.90;;;;;;;;;;5017767;28;20422;-67
2023/11/28 03:27:34;;;;;;;3.70;1.00;;;;;;;;;;5013355;28;20136;-67
2023/11/28 03:30:01;;;;;;;2.67;1.58;;;;;;;;;;5031166;28;20583;-67
2023/11/28 03:32:27;;;;;;;2.35;1.10;;;;;;;;;;5001127;28;20052;-67
2023/11/28 03:34:53;;;;;;;6.63;1.30;;;;;;;;;;5022483;28;21263;-67
2023/11/28 03:37:20;;;;;;;7.57;1.30;;;;;;;;;;5021844;28;20045;-67
2023/11/28 03:39:46;;;;;;;5.03;1.10;;;;;;;;;;5023287;28;20192;-68
2023/11/28 03:42:12;;;;;;;5.13;1.40;;;;;;;;;;5021425;28;20045;-67
2023/11/28 03:44:38;;;;;;;6.85;1.75;;;;;;;;;;5022083;28;20056;-67
2023/11/28 03:47:04;;;;;;;7.60;1.40;;;;;;;;;;5023144;28;20481;-68
2023/11/28 03:49:31;;;;;;;6.20;1.50;;;;;;;;;;5038761;28;20144;-67
2023/11/28 03:51:57;;;;;;;4.57;1.25;;;;;;;;;;5020753;28;20100;-67
2023/11/28 03:54:23;;;;;;;5.82;2.10;;;;;;;;;;5021378;28;20181;-67
2023/11/28 03:56:50;;;;;;;10.52;1.80;;;;;;;;;;5023306;28;20048;-67
2023/11/28 03:59:17;;;;;;;12.57;1.83;;;;;;;;;;5040376;28;20092;-67
2023/11/28 04:01:44;;;;;;;4.65;1.63;;;;;;;;;;5024175;28;20060;-67
2023/11/28 04:04:11;;;;;;;6.50;1.67;;;;;;;;;;5026568;28;20084;-67
2023/11/28 04:06:37;;;;;;;7.40;1.80;;;;;;;;;;5024968;28;20611;-67
2023/11/28 04:09:04;;;;;;;6.05;2.92;;;;;;;;;;5026590;28;20056;-67
2023/11/28 04:11:30;;;;;;;10.55;2.55;;;;;;;;;;5029491;28;20119;-67
2023/11/28 04:13:56;;;;;;;4.50;1.85;;;;;;;;;;5029620;28;20045;-67
2023/11/28 04:16:23;;;;;;;6.07;1.80;;;;;;;;;;5031228;28;20133;-67
2023/11/28 04:18:50;;;;;;;3.60;1.67;;;;;;;;;;5028559;28;20120;-67
2023/11/28 04:21:19;;;;;;;5.13;1.58;;;;;;;;;;5030184;28;20037;-67
2023/11/28 04:23:45;;;;;;;7.80;2.83;;;;;;;;;;5027675;28;20171;-68
2023/11/28 04:26:12;;;;;;;5.95;2.10;;;;;;;;;;5011028;28;20396;-68
2023/11/28 04:28:38;;;;;;;9.23;2.22;;;;;;;;;;5026123;28;20049;-67
2023/11/28 04:31:04;;;;;;;7.85;1.80;;;;;;;;;;5028862;28;20179;-67
2023/11/28 04:33:30;;;;;;;5.72;1.67;;;;;;;;;;5024353;28;20041;-67
2023/11/28 04:35:57;;;;;;;9.18;1.83;;;;;;;;;;5024095;28;20056;-67
2023/11/28 04:38:23;;;;;;;7.90;1.92;;;;;;;;;;5026444;28;20041;-67
2023/11/28 04:40:50;;;;;;;8.23;1.90;;;;;;;;;;5002024;28;20407;-67
2023/11/28 04:43:16;;;;;;;4.68;1.77;;;;;;;;;;5024253;28;20600;-67
2023/11/28 04:45:42;;;;;;;11.02;1.88;;;;;;;;;;5027835;28;20115;-67
2023/11/28 04:48:08;;;;;;;5.13;1.73;;;;;;;;;;5028106;28;20402;-68
2023/11/28 04:50:34;;;;;;;5.78;1.70;;;;;;;;;;5027790;28;20037;-67
2023/11/28 04:53:01;;;;;;;7.07;1.80;;;;;;;;;;5028008;28;20045;-67
2023/11/28 04:55:27;;;;;;;7.57;2.40;;;;;;;;;;5027543;28;20045;-67
2023/11/28 04:57:53;;;;;;;6.70;2.15;;;;;;;;;;5026662;28;20060;-67
2023/11/28 05:00:19;;;;;;;8.20;2.72;;;;;;;;;;5008696;28;20041;-67
2023/11/28 05:02:45;;;;;;;5.88;1.85;;;;;;;;;;5022728;28;20053;-67
2023/11/28 05:05:11;;;;;;;7.53;2.03;;;;;;;;;;5025152;28;20770;-67
2023/11/28 05:07:38;;;;;;;8.63;2.70;;;;;;;;;;5022045;28;20053;-67
2023/11/28 05:10:04;;;;;;;3.88;1.75;;;;;;;;;;5021324;28;20045;-67
2023/11/28 05:12:32;;;;;;;5.07;1.83;;;;;;;;;;5026236;28;20059;-67
2023/11/28 05:14:58;;;;;;;5.03;1.90;;;;;;;;;;5028968;28;20496;-67
2023/11/28 05:17:24;;;;;;;4.93;2.38;;;;;;;;;;5026105;28;20098;-67
2023/11/28 05:19:51;;;;;;;6.47;2.33;;;;;;;;;;5027290;28;20045;-67
2023/11/28 05:22:17;;;;;;;5.95;1.88;;;;;;;;;;5026949;28;21247;-67
2023/11/28 05:24:43;;;;;;;5.32;2.03;;;;;;;;;;5025750;28;20053;-68
2023/11/28 05:27:10;;;;;;;4.38;2.08;;;;;;;;;;5010662;28;20052;-67
2023/11/28 05:29:36;;;;;;;5.13;2.50;;;;;;;;;;5025598;28;20511;-67
2023/11/28 05:32:04;;;;;;;4.75;2.25;;;;;;;;;;5043074;28;20400;-67
2023/11/28 05:34:31;;;;;;;5.45;2.90;;;;;;;;;;5045453;28;20063;-67
2023/11/28 05:36:57;;;;;;;7.05;2.22;;;;;;;;;;5027315;28;20132;-67
2023/11/28 05:39:23;;;;;;;7.70;3.17;;;;;;;;;;5027820;28;20515;-67
2023/11/28 05:41:49;;;;;;;8.20;3.13;;;;;;;;;;5041834;28;20033;-67
2023/11/28 05:44:16;;;;;;;6.40;2.97;;;;;;;;;;5041681;28;20140;-67
2023/11/28 05:46:42;;;;;;;6.00;2.45;;;;;;;;;;5042431;28;20084;-67
2023/11/28 05:49:08;;;;;;;8.00;2.95;;;;;;;;;;5028281;28;20494;-67
2023/11/28 05:51:35;;;;;;;7.40;2.97;;;;;;;;;;5028461;28;20083;-67
2023/11/28 05:54:01;;;;;;;8.13;3.15;;;;;;;;;;5046647;28;20049;-67
2023/11/28 05:56:27;;;;;;;8.20;2.78;;;;;;;;;;5045431;28;20256;-68
2023/11/28 05:58:53;;;;;;;7.68;2.20;;;;;;;;;;5026822;28;20410;-68
2023/11/28 06:01:19;;;;;;;5.65;2.15;;;;;;;;;;5024568;28;20048;-67
2023/11/28 06:03:46;;;;;;;6.70;2.22;;;;;;;;;;5043967;28;20069;-66
2023/11/28 06:06:12;;;;;;;11.63;2.17;;;;;;;;;;5025751;28;20037;-67
2023/11/28 06:08:38;;;;;;;5.90;1.90;;;;;;;;;;5044541;28;20504;-67
2023/11/28 06:11:04;;;;;;;10.00;2.17;;;;;;;;;;5025893;28;20128;-66
2023/11/28 06:13:30;;;;;;;5.70;2.00;;;;;;;;;;5043627;28;20048;-68
2023/11/28 06:15:58;;;;;;;8.02;2.60;;;;;;;;;;5026613;28;20080;-68
2023/11/28 06:18:24;;;;;;;5.05;2.10;;;;;;;;;;5024827;28;20091;-68
2023/11/28 06:20:50;;;;;;;6.05;2.03;;;;;;;;;;5010191;28;20120;-68
2023/11/28 06:23:18;;;;;;;5.35;1.98;;;;;;;;;;5024599;28;20409;-67
2023/11/28 06:25:44;;;;;;;3.70;1.88;;;;;;;;;;5025927;28;20049;-67
2023/11/28 06:28:10;;;;;;;3.78;1.60;;;;;;;;;;5010842;28;20456;-67
2023/11/28 06:30:36;;;;;;;10.27;2.30;;;;;;;;;;5043077;28;20041;-64
2023/11/28 06:33:03;;;;;;;5.40;1.80;;;;;;;;;;5027548;28;20048;-65
2023/11/28 06:35:32;;;;;;;5.07;1.70;;;;;;;;;;5044748;28;20503;-64
2023/11/28 06:37:59;;;;;;;6.65;2.00;;;;;;;;;;5025895;28;20114;-65
2023/11/28 06:40:25;;;;;;;5.63;1.80;;;;;;;;;;5025650;28;20068;-65
2023/11/28 06:42:51;;;;;;;3.60;1.80;;;;;;;;;;5041976;28;20041;-65
2023/11/28 06:45:17;;;;;;;7.45;2.35;;;;;;;;;;5041720;28;20044;-65
2023/11/28 06:47:44;;;;;;;6.53;1.90;;;;;;;;;;5043395;28;20052;-65
2023/11/28 06:50:10;;;;;;;6.90;2.30;;;;;;;;;;5024529;28;20554;-65
2023/11/28 06:52:36;;;;;;;9.40;2.22;;;;;;;;;;5026601;28;20493;-65
2023/11/28 06:55:05;;;;;;;7.13;1.98;;;;;;;;;;5042709;28;20037;-65
2023/11/28 06:57:32;;;;;;;4.95;1.92;;;;;;;;;;5044308;28;20041;-65
2023/11/28 06:59:58;;;;;;;6.45;2.35;;;;;;;;;;5025002;28;20051;-65
2023/11/28 07:02:25;;;;;;;5.85;2.00;;;;;;;;;;5042444;28;20116;-65
2023/11/28 07:04:51;;;;;;;5.78;2.20;;;;;;;;;;5028343;28;20106;-64
2023/11/28 07:07:17;;;;;;;7.22;2.30;;;;;;;;;;5025446;28;20056;-65
2023/11/28 07:09:47;;;;;;;5.32;1.80;;;;;;;;;;5022614;28;20411;-65
2023/11/28 07:12:13;;;;;;;8.07;2.00;;;;;;;;;;5025934;28;20388;-65
2023/11/28 07:14:40;;;;;;;5.03;2.13;;;;;;;;;;5026088;28;20087;-65
2023/11/28 07:17:06;;;;;;;5.82;2.05;;;;;;;;;;5023444;28;21627;-65
2023/11/28 07:19:32;;;;;;;5.10;2.00;;;;;;;;;;5022725;28;20092;-65
2023/11/28 07:21:59;;;;;;;7.50;2.75;;;;;;;;;;5024764;28;20447;-65
2023/11/28 07:24:25;;;;;;;5.78;1.80;;;;;;;;;;5024898;28;20044;-65
2023/11/28 07:26:51;;;;;;;4.95;1.73;;;;;;;;;;5025938;28;20045;-65
2023/11/28 07:29:17;;;;;;;8.80;1.92;;;;;;;;;;5005795;28;20175;-65
2023/11/28 07:31:43;;;;;;;5.00;1.67;;;;;;;;;;5020450;28;20041;-65
2023/11/28 07:34:09;;;;;;;3.95;1.73;;;;;;;;;;5025659;28;20045;-65
2023/11/28 07:36:36;;;;;;;4.22;1.70;;;;;;;;;;5006520;28;20552;-65
2023/11/28 07:39:03;;;;;;;4.38;1.40;;;;;;;;;;5023673;28;20057;-65
2023/11/28 07:41:30;;;;;;;3.67;1.63;;;;;;;;;;5024809;28;20048;-65
2023/11/28 07:43:56;;;;;;;7.82;1.92;;;;;;;;;;5025434;28;20140;-65
2023/11/28 07:46:23;;;;;;;5.60;1.50;;;;;;;;;;5022438;28;20049;-70
2023/11/28 07:48:49;;;;;;;6.03;1.83;;;;;;;;;;5022881;28;20092;-64
2023/11/28 07:51:15;;;;;;;68.57;5.40;;;;;;;;;;5022013;28;20396;-65
2023/11/28 07:53:42;;;;;;;7.95;1.80;;;;;;;;;;5021506;28;20194;-65
2023/11/28 07:56:08;;;;;;;5.00;1.92;;;;;;;;;;5005659;28;20404;-65
2023/11/28 07:58:34;;;;;;;3.78;1.60;;;;;;;;;;5023017;28;20132;-65
2023/11/28 08:01:00;;;;;;;5.30;1.67;;;;;;;;;;5025378;28;20076;-65
2023/11/28 08:03:27;;;;;;;7.20;2.58;;;;;;;;;;5023271;28;20053;-77
2023/11/28 08:05:53;;;;;;;5.40;1.77;;;;;;;;;;5021495;28;20037;-65
2023/11/28 08:08:19;;;;;;;7.72;2.08;;;;;;;;;;5023186;28;20400;-65
2023/11/28 08:10:47;;;;;;;4.57;1.65;;;;;;;;;;5022900;28;20112;-65
2023/11/28 08:13:15;;;;;;;5.78;1.90;;;;;;;;;;5020430;28;20061;-65
2023/11/28 08:15:42;;;;;;;5.40;2.50;;;;;;;;;;5028381;28;20049;-65
2023/11/28 08:18:08;;;;;;;4.72;1.60;;;;;;;;;;5027191;28;20063;-65
2023/11/28 08:20:35;;;;;;;6.95;1.73;;;;;;;;;;5023987;28;20143;-65
2023/11/28 08:23:01;;;;;;;5.72;2.22;;;;;;;;;;5023967;28;20041;-65
2023/11/28 08:25:27;;;;;;;4.88;1.80;;;;;;;;;;5039967;28;21004;-65
2023/11/28 08:27:53;;;;;;;5.10;2.10;;;;;;;;;;5042664;28;20043;-65
2023/11/28 08:30:19;;;;;;;6.28;2.03;;;;;;;;;;5042636;28;20054;-65
2023/11/28 08:32:46;;;;;;;7.68;2.28;;;;;;;;;;5023846;28;20037;-65
2023/11/28 08:35:12;;;;;;;4.88;1.85;;;;;;;;;;5043939;28;20037;-65
2023/11/28 08:37:38;;;;;;;5.32;1.70;;;;;;;;;;5026603;28;20048;-65
2023/11/28 08:40:06;;;;;;;6.07;2.30;;;;;;;;;;5042613;28;20120;-65
2023/11/28 08:42:33;;;;;;;4.03;1.60;;;;;;;;;;5042390;28;20102;-65
2023/11/28 08:44:59;;;;;;;6.28;1.52;;;;;;;;;;5046725;28;20063;-65
2023/11/28 08:47:25;;;;;;;3.42;1.63;;;;;;;;;;5012539;28;20555;-65
2023/11/28 08:49:52;;;;;;;7.95;1.60;;;;;;;;;;5029364;28;20045;-65
2023/11/28 08:52:20;;;;;;;6.00;1.70;;;;;;;;;;5026663;28;20060;-65
2023/11/28 08:54:47;;;;;;;4.00;1.98;;;;;;;;;;5028105;28;20103;-65
2023/11/28 08:57:14;;;;;;;5.85;1.65;;;;;;;;;;5044195;28;20671;-65
2023/11/28 08:59:40;;;;;;;5.93;2.03;;;;;;;;;;5046780;28;20041;-65
2023/11/28 09:02:07;;;;;;;7.47;2.15;;;;;;;;;;5029130;28;20396;-64
2023/11/28 09:04:33;;;;;;;4.35;1.48;;;;;;;;;;5029609;28;20080;-65
2023/11/28 09:07:00;;;;;;;3.67;1.80;;;;;;;;;;5029491;28;20048;-65
2023/11/28 09:09:26;;;;;;;6.70;1.80;;;;;;;;;;5043945;28;20037;-65
2023/11/28 09:11:52;;;;;;;7.22;1.80;;;;;;;;;;5045313;28;20041;-65
2023/11/28 09:14:18;;;;;;;6.45;2.00;;;;;;;;;;5028138;28;20110;-65
2023/11/28 09:16:45;;;;;;;5.35;1.98;;;;;;;;;;5047326;28;20068;-65
2023/11/28 09:19:11;;;;;;;5.60;2.03;;;;;;;;;;5027605;28;20144;-65
2023/11/28 09:21:37;;;;;;;5.78;1.75;;;;;;;;;;5027104;28;20098;-65
2023/11/28 09:24:07;;;;;;;4.60;1.77;;;;;;;;;;5047535;28;20080;-65
2023/11/28 09:26:33;;;;;;;3.50;1.48;;;;;;;;;;5023396;28;20037;-65
2023/11/28 09:29:01;;;;;;;9.25;1.85;;;;;;;;;;5022385;28;20475;-64
2023/11/28 09:31:28;;;;;;;6.18;2.53;;;;;;;;;;5027030;28;20076;-65
2023/11/28 09:33:55;;;;;;;9.02;2.85;;;;;;;;;;5025608;28;20037;-65
2023/11/28 09:36:21;;;;;;;5.60;3.08;;;;;;;;;;5043441;28;20056;-65
2023/11/28 09:38:47;;;;;;;6.25;2.47;;;;;;;;;;5028664;28;20066;-65
2023/11/28 09:41:14;;;;;;;10.93;2.45;;;;;;;;;;5025554;28;20055;-64
2023/11/28 09:43:41;;;;;;;10.48;2.97;;;;;;;;;;5044262;28;20041;-65
2023/11/28 09:46:09;;;;;;;5.68;1.80;;;;;;;;;;5026671;28;20067;-65
2023/11/28 09:48:36;;;;;;;5.15;1.75;;;;;;;;;;5027573;28;20041;-65
2023/11/28 09:51:05;;;;;;;6.40;2.00;;;;;;;;;;5025320;28;20481;-65
2023/11/28 09:53:32;;;;;;;4.72;1.88;;;;;;;;;;5025364;28;20523;-65
2023/11/28 09:55:59;;;;;;;5.10;2.00;;;;;;;;;;5027716;28;20942;-65
2023/11/28 09:58:26;;;;;;;7.93;1.70;;;;;;;;;;5044634;28;20045;-65
2023/11/28 10:00:53;;;;;;;5.18;1.65;;;;;;;;;;5044932;28;20404;-65
2023/11/28 10:03:20;;;;;;;7.07;1.55;;;;;;;;;;5028954;28;20052;-65
2023/11/28 10:05:47;;;;;;;4.05;1.38;;;;;;;;;;5026291;28;20052;-65
2023/11/28 10:08:14;;;;;;;4.07;1.65;;;;;;;;;;5044366;28;20408;-65
2023/11/28 10:10:43;;;;;;;5.72;1.30;;;;;;;;;;5043990;28;20381;-64
2023/11/28 10:13:10;;;;;;;7.32;1.50;;;;;;;;;;5027899;28;20091;-65
2023/11/28 10:15:36;;;;;;;7.53;1.95;;;;;;;;;;5028319;28;20071;-64
2023/11/28 10:18:02;;;;;;;4.50;1.40;;;;;;;;;;5029473;28;20684;-64
2023/11/28 10:20:29;;;;;;;4.10;1.30;;;;;;;;;;5044396;28;20128;-64
2023/11/28 10:22:56;;;;;;;4.40;1.30;;;;;;;;;;5026902;28;21481;-64
2023/11/28 10:25:23;;;;;;;3.75;1.33;;;;;;;;;;5028803;28;20048;-64
2023/11/28 10:27:50;;;;;;;4.18;1.50;;;;;;;;;;5047803;28;20084;-65
2023/11/28 10:30:19;;;;;;;5.78;1.52;;;;;;;;;;5047601;28;20431;-64
2023/11/28 10:32:46;;;;;;;4.50;2.00;;;;;;;;;;5050989;28;20045;-64
2023/11/28 10:35:12;;;;;;;7.25;2.20;;;;;;;;;;5049527;28;20452;-64
2023/11/28 10:37:39;;;;;;;4.75;1.92;;;;;;;;;;5030802;28;20132;-64
2023/11/28 10:40:06;;;;;;;4.78;2.15;;;;;;;;;;5048167;28;20037;-63
2023/11/28 10:42:33;;;;;;;6.40;1.95;;;;;;;;;;5027057;28;20048;-63
2023/11/28 10:45:00;;;;;;;4.57;1.40;;;;;;;;;;5044491;28;20036;-64
2023/11/28 10:47:29;;;;;;;5.18;1.58;;;;;;;;;;5026477;28;20061;-64
2023/11/28 10:49:56;;;;;;;6.25;1.80;;;;;;;;;;5026403;28;20049;-64
2023/11/28 10:52:27;;;;;;;3.92;1.27;;;;;;;;;;5027145;28;20091;-63
2023/11/28 10:54:56;;;;;;;8.50;1.40;;;;;;;;;;5042734;28;20144;-64
2023/11/28 10:57:27;;;;;;;4.47;1.40;;;;;;;;;;5045038;28;20447;-64
2023/11/28 10:59:59;;;;;;;3.60;1.27;;;;;;;;;;5043957;28;20091;-64
2023/11/28 11:02:25;;;;;;;3.58;1.48;;;;;;;;;;5026361;28;20044;-64
2023/11/28 11:04:51;;;;;;;6.18;1.98;;;;;;;;;;5043892;28;20044;-63
2023/11/28 11:07:17;;;;;;;3.72;1.50;;;;;;;;;;5043766;28;20041;-63
2023/11/28 11:09:44;;;;;;;5.40;1.55;;;;;;;;;;5044026;28;20050;-64
2023/11/28 11:12:11;;;;;;;9.73;1.80;;;;;;;;;;5024686;28;20044;-64
2023/11/28 11:14:46;;;;;;;5.65;1.50;;;;;;;;;;5026613;28;20503;-64
2023/11/28 11:17:18;;;;;;;6.05;1.52;;;;;;;;;;5022167;28;20053;-64
2023/11/28 11:19:45;;;;;;;9.80;1.83;;;;;;;;;;5023557;28;20059;-64
2023/11/28 11:22:13;;;;;;;4.80;1.60;;;;;;;;;;5024189;28;20041;-64
2023/11/28 11:24:39;;;;;;;6.15;1.50;;;;;;;;;;5023698;28;20116;-64
2023/11/28 11:27:06;;;;;;;7.40;1.27;;;;;;;;;;5022254;28;20037;-64
2023/11/28 11:29:34;;;;;;;5.82;2.03;;;;;;;;;;5021907;28;20049;-64
2023/11/28 11:32:01;;;;;;;4.88;1.90;;;;;;;;;;5023235;28;20117;-64
2023/11/28 11:34:42;;;;;;;4.32;1.45;;;;;;;;;;5021269;28;20124;-64
2023/11/28 11:37:13;;;;;;;5.00;1.35;;;;;;;;;;5024331;28;20123;-64
2023/11/28 11:39:40;;;;;;;3.95;1.42;;;;;;;;;;5023649;28;20057;-65
2023/11/28 11:42:08;;;;;;;6.38;1.73;;;;;;;;;;5023764;28;20060;-64
2023/11/28 11:44:35;;;;;;;6.78;1.40;;;;;;;;;;5023811;28;20065;-64
2023/11/28 11:47:13;;;;;;;5.13;1.67;;;;;;;;;;5040597;28;20052;-64
2023/11/28 11:49:40;;;;;;;7.18;1.75;;;;;;;;;;5022117;28;20053;-64
2023/11/28 11:52:07;;;;;;;4.85;1.58;;;;;;;;;;5022680;28;20053;-64
2023/11/28 11:54:33;;;;;;;5.50;1.55;;;;;;;;;;5026384;28;20045;-64
2023/11/28 11:56:59;;;;;;;5.32;1.88;;;;;;;;;;5021846;28;20041;-64
2023/11/28 11:59:27;;;;;;;5.68;1.40;;;;;;;;;;5023078;28;20104;-64
2023/11/28 12:01:53;;;;;;;3.20;1.35;;;;;;;;;;5022767;28;20041;-64
2023/11/28 12:04:20;;;;;;;3.85;1.13;;;;;;;;;;5022015;28;20105;-64
2023/11/28 12:06:46;;;;;;;3.63;1.27;;;;;;;;;;5022850;28;20124;-64
2023/11/28 12:09:12;;;;;;;7.30;1.33;;;;;;;;;;5022279;28;20095;-64
2023/11/28 12:11:38;;;;;;;5.55;1.63;;;;;;;;;;5021462;28;20461;-64
2023/11/28 12:14:05;;;;;;;3.65;1.20;;;;;;;;;;5021674;28;20168;-63
2023/11/28 12:16:31;;;;;;;4.97;2.00;;;;;;;;;;5034130;28;20064;-64
2023/11/28 12:18:58;;;;;;;6.20;1.45;;;;;;;;;;5025468;28;20492;-64
2023/11/28 12:21:24;;;;;;;7.68;1.40;;;;;;;;;;5026335;28;20048;-64
2023/11/28 12:23:50;;;;;;;5.40;1.45;;;;;;;;;;5029644;28;20052;-64
2023/11/28 12:26:17;;;;;;;3.83;1.08;;;;;;;;;;5029169;28;20076;-64
2023/11/28 12:28:43;;;;;;;7.63;1.85;;;;;;;;;;5048055;28;20040;-64
2023/11/28 12:31:09;;;;;;;4.20;1.30;;;;;;;;;;5029772;28;20098;-64
2023/11/28 12:33:37;;;;;;;6.07;1.40;;;;;;;;;;5029285;28;20140;-64
2023/11/28 12:36:04;;;;;;;6.03;1.42;;;;;;;;;;5047485;28;20140;-64
2023/11/28 12:38:31;;;;;;;7.47;1.40;;;;;;;;;;5045230;28;20049;-64
2023/11/28 12:40:57;;;;;;;7.88;1.75;;;;;;;;;;5028721;28;20190;-64
2023/11/28 12:43:23;;;;;;;5.35;1.70;;;;;;;;;;5047190;28;20029;-64
2023/11/28 12:45:57;;;;;;;4.70;1.70;;;;;;;;;;5045554;28;20430;-63
2023/11/28 12:48:24;;;;;;;5.05;1.15;;;;;;;;;;5026917;28;20067;-65
2023/11/28 12:50:52;;;;;;;4.00;1.27;;;;;;;;;;5026894;28;20076;-65
2023/11/28 12:53:19;;;;;;;3.63;1.40;;;;;;;;;;5026685;28;20045;-74
2023/11/28 12:55:46;;;;;;;3.58;1.40;;;;;;;;;;5029770;28;20041;-64
2023/11/28 12:58:12;;;;;;;10.65;1.48;;;;;;;;;;5049419;28;20381;-66
2023/11/28 13:00:39;;;;;;;4.50;1.20;;;;;;;;;;5048039;28;20063;-67
2023/11/28 13:03:05;;;;;;;5.22;1.20;;;;;;;;;;5031596;28;20051;-66
2023/11/28 13:05:31;;;;;;;4.65;1.50;;;;;;;;;;5050037;28;20037;-66
2023/11/28 13:07:57;;;;;;;6.95;2.08;;;;;;;;;;5047070;28;20063;-66
2023/11/28 13:10:23;;;;;;;4.57;1.70;;;;;;;;;;5049028;28;20037;-66
2023/11/28 13:12:49;;;;;;;7.80;1.50;;;;;;;;;;5047926;28;20041;-66
2023/11/28 13:15:16;;;;;;;4.80;1.63;;;;;;;;;;5049007;28;20099;-66
2023/11/28 13:17:42;;;;;;;7.78;1.27;;;;;;;;;;5032679;28;20072;-67
2023/11/28 13:20:08;;;;;;;7.35;1.40;;;;;;;;;;5051044;28;20041;-66
2023/11/28 13:22:35;;;;;;;5.43;1.33;;;;;;;;;;5029831;28;20117;-66
2023/11/28 13:25:01;;;;;;;5.25;1.48;;;;;;;;;;5047779;28;20154;-66
2023/11/28 13:27:27;;;;;;;5.32;1.33;;;;;;;;;;5052693;28;20507;-67
2023/11/28 13:29:55;;;;;;;4.22;1.27;;;;;;;;;;5034190;28;20045;-66
2023/11/28 13:32:21;;;;;;;3.85;1.30;;;;;;;;;;5034473;28;20053;-66
2023/11/28 13:34:47;;;;;;;3.08;1.25;;;;;;;;;;5034462;28;20049;-66
2023/11/28 13:37:14;;;;;;;7.60;1.60;;;;;;;;;;5029949;28;20520;-66
2023/11/28 13:39:42;;;;;;;4.38;1.65;;;;;;;;;;5016804;28;20037;-66
2023/11/28 13:42:08;;;;;;;5.47;1.73;;;;;;;;;;5028137;28;20199;-65
2023/11/28 13:44:35;;;;;;;5.07;1.40;;;;;;;;;;5038443;28;20045;-66
2023/11/28 13:47:01;;;;;;;5.60;1.50;;;;;;;;;;5033877;28;20037;-66
2023/11/28 13:49:27;;;;;;;3.67;1.70;;;;;;;;;;5047251;28;20057;-66
2023/11/28 13:51:53;;;;;;;4.50;1.75;;;;;;;;;;5035163;28;20377;-65
2023/11/28 13:54:20;;;;;;;4.35;1.63;;;;;;;;;;5013789;28;20117;-66
2023/11/28 13:56:46;;;;;;;7.05;1.90;;;;;;;;;;5031205;28;20156;-65
2023/11/28 13:59:12;;;;;;;7.95;2.42;;;;;;;;;;5034876;28;20107;-66
2023/11/28 14:01:38;;;;;;;4.53;1.40;;;;;;;;;;5052742;28;20072;-65
2023/11/28 14:04:05;;;;;;;4.78;1.52;;;;;;;;;;5033767;28;20041;-66
2023/11/28 14:06:31;;;;;;;4.15;1.60;;;;;;;;;;5016878;28;20362;-66
2023/11/28 14:08:57;;;;;;;4.38;1.60;;;;;;;;;;5044110;28;20508;-66
2023/11/28 14:11:23;;;;;;;5.82;2.22;;;;;;;;;;5026775;28;20124;-66
2023/11/28 14:13:50;;;;;;;4.82;1.80;;;;;;;;;;5043289;28;20040;-66
2023/11/28 14:16:16;;;;;;;6.97;2.00;;;;;;;;;;5025439;28;20124;-67
2023/11/28 14:18:42;;;;;;;9.07;2.00;;;;;;;;;;5025545;28;20052;-67
2023/11/28 14:21:08;;;;;;;6.18;1.83;;;;;;;;;;5025393;28;20037;-67
2023/11/28 14:23:35;;;;;;;5.13;2.65;;;;;;;;;;5043794;28;20037;-67
2023/11/28 14:26:01;;;;;;;3.45;1.70;;;;;;;;;;5044483;28;21445;-67
2023/11/28 14:28:27;;;;;;;4.18;1.67;;;;;;;;;;5026416;28;20056;-67
2023/11/28 14:30:53;;;;;;;7.00;1.60;;;;;;;;;;5026522;28;20055;-67
2023/11/28 14:33:20;;;;;;;6.60;2.17;;;;;;;;;;5029113;28;20049;-67
2023/11/28 14:35:47;;;;;;;5.47;1.75;;;;;;;;;;5028825;28;20508;-67
2023/11/28 14:38:14;;;;;;;3.50;1.75;;;;;;;;;;5028664;28;20197;-67